createdAt,value
2022-10-18T00:01:24.033Z,73.19
2022-10-18T00:03:56.334Z,73.09
2022-10-18T00:06:28.378Z,73.17
2022-10-18T00:09:00.324Z,73.23
2022-10-18T00:11:33.731Z,73.27
2022-10-18T00:14:05.744Z,73.37
2022-10-18T00:16:38.471Z,73.41
2022-10-18T00:19:12.522Z,73.46
2022-10-18T00:24:22.108Z,73.54
2022-10-18T00:26:54.324Z,73.53
2022-10-18T00:29:26.294Z,73.50
2022-10-18T00:31:58.325Z,73.54
2022-10-18T00:34:30.648Z,73.55
2022-10-18T00:37:02.665Z,73.33
2022-10-18T00:39:35.726Z,73.43
2022-10-18T00:42:07.833Z,73.42
2022-10-18T00:45:08.668Z,73.40
2022-10-18T00:47:41.111Z,73.49
2022-10-18T00:50:13.524Z,73.59
2022-10-18T00:52:48.293Z,73.78
2022-10-18T00:55:20.841Z,73.76
2022-10-18T01:00:30.428Z,73.50
2022-10-18T01:03:02.456Z,73.43
2022-10-18T01:05:37.333Z,73.70
2022-10-18T01:08:29.671Z,73.46
2022-10-18T01:11:18.955Z,73.47
2022-10-18T01:14:08.170Z,73.59
2022-10-18T01:16:46.276Z,73.48
2022-10-18T01:19:42.199Z,73.43
2022-10-18T01:22:22.925Z,73.45
2022-10-18T01:25:08.289Z,73.29
2022-10-18T01:27:50.024Z,73.32
2022-10-18T01:30:44.896Z,73.34
2022-10-18T01:33:25.912Z,73.25
2022-10-18T01:36:02.315Z,73.03
2022-10-18T01:38:36.349Z,73.11
2022-10-18T01:41:14.804Z,72.98
2022-10-18T01:43:51.172Z,72.80
2022-10-18T01:46:26.981Z,72.71
2022-10-18T01:49:00.267Z,72.66
2022-10-18T01:51:33.945Z,72.60
2022-10-18T01:54:06.318Z,72.54
2022-10-18T01:56:48.982Z,72.38
2022-10-18T01:59:48.105Z,72.15
2022-10-18T02:02:30.827Z,72.14
2022-10-18T02:05:12.425Z,71.84
2022-10-18T02:08:00.412Z,71.76
2022-10-18T02:10:51.017Z,71.87
2022-10-18T02:13:26.394Z,71.77
2022-10-18T02:16:11.399Z,71.57
2022-10-18T02:18:48.072Z,71.45
2022-10-18T02:21:22.379Z,71.58
2022-10-18T02:23:55.554Z,71.40
2022-10-18T02:26:28.301Z,71.44
2022-10-18T02:29:00.508Z,71.45
2022-10-18T02:31:37.465Z,71.38
2022-10-18T02:34:17.926Z,71.55
2022-10-18T02:36:49.448Z,71.51
2022-10-18T02:39:24.649Z,71.59
2022-10-18T02:41:58.230Z,71.47
2022-10-18T02:44:30.784Z,71.54
2022-10-18T02:47:03.043Z,71.77
2022-10-18T02:49:35.381Z,71.60
2022-10-18T02:52:08.728Z,71.58
2022-10-18T02:54:42.108Z,71.71
2022-10-18T02:57:14.180Z,71.55
2022-10-18T02:59:46.481Z,71.53
2022-10-18T03:02:18.411Z,71.67
2022-10-18T03:04:50.454Z,71.71
2022-10-18T03:07:22.398Z,71.73
2022-10-18T03:09:54.666Z,71.74
2022-10-18T03:12:26.625Z,72.02
2022-10-18T03:14:58.681Z,71.90
2022-10-18T03:17:31.092Z,71.99
2022-10-18T03:20:03.300Z,71.83
2022-10-18T03:22:35.475Z,71.94
2022-10-18T03:25:08.112Z,71.96
2022-10-18T03:27:40.166Z,72.06
2022-10-18T03:30:14.141Z,72.01
2022-10-18T03:32:46.029Z,72.08
2022-10-18T03:35:18.349Z,72.31
2022-10-18T03:41:03.527Z,72.19
2022-10-18T03:43:35.436Z,72.24
2022-10-18T03:46:08.065Z,72.30
2022-10-18T03:48:39.974Z,72.34
2022-10-18T03:51:12.155Z,72.30
2022-10-18T03:53:44.166Z,72.36
2022-10-18T03:56:16.124Z,72.41
2022-10-18T03:58:48.318Z,72.55
2022-10-18T04:01:20.400Z,72.53
2022-10-18T04:03:52.609Z,72.55
2022-10-18T04:06:24.806Z,72.57
2022-10-18T04:08:57.444Z,72.72
2022-10-18T04:11:29.423Z,72.68
2022-10-18T04:14:01.458Z,72.88
2022-10-18T04:16:33.820Z,72.90
2022-10-18T04:19:05.739Z,72.87
2022-10-18T04:21:37.743Z,72.93
2022-10-18T04:24:10.133Z,72.88
2022-10-18T04:26:42.176Z,72.72
2022-10-18T04:29:14.354Z,72.94
2022-10-18T04:31:46.659Z,72.91
2022-10-18T04:34:18.629Z,72.85
2022-10-18T04:36:50.652Z,72.83
2022-10-18T04:39:23.208Z,72.77
2022-10-18T04:41:55.153Z,72.81
2022-10-18T04:44:27.138Z,72.75
2022-10-18T04:46:59.083Z,72.59
2022-10-18T04:49:31.190Z,72.65
2022-10-18T04:52:03.176Z,72.53
2022-10-18T04:54:35.216Z,72.52
2022-10-18T04:57:07.329Z,72.50
2022-10-18T04:59:39.199Z,72.46
2022-10-18T05:02:15.275Z,72.39
2022-10-18T05:04:47.173Z,72.28
2022-10-18T05:07:19.135Z,72.23
2022-10-18T05:09:51.136Z,72.23
2022-10-18T05:12:23.421Z,72.14
2022-10-18T05:14:56.811Z,72.05
2022-10-18T05:17:28.913Z,71.94
2022-10-18T05:20:00.949Z,71.99
2022-10-18T05:22:33.364Z,71.92
2022-10-18T05:25:06.040Z,71.87
2022-10-18T05:27:38.008Z,71.87
2022-10-18T05:30:45.188Z,71.92
2022-10-18T05:33:17.216Z,71.84
2022-10-18T05:35:49.165Z,71.86
2022-10-18T05:38:21.291Z,71.74
2022-10-18T05:40:53.370Z,71.90
2022-10-18T05:43:28.969Z,71.78
2022-10-18T05:46:01.042Z,71.66
2022-10-18T05:48:33.165Z,71.71
2022-10-18T05:51:05.212Z,71.71
2022-10-18T05:53:38.130Z,71.87
2022-10-18T05:56:14.255Z,71.83
2022-10-18T05:58:56.476Z,71.65
2022-10-18T06:01:28.448Z,71.61
2022-10-18T06:04:00.534Z,71.43
2022-10-18T06:06:34.104Z,71.41
2022-10-18T06:09:07.557Z,71.24
2022-10-18T06:11:39.790Z,71.00
2022-10-18T06:14:12.362Z,70.89
2022-10-18T06:16:44.257Z,70.82
2022-10-18T06:19:16.437Z,70.73
2022-10-18T06:21:48.389Z,70.66
2022-10-18T06:24:21.697Z,70.57
2022-10-18T06:26:53.829Z,70.42
2022-10-18T06:29:25.903Z,70.32
2022-10-18T06:31:58.090Z,70.11
2022-10-18T06:34:30.074Z,70.08
2022-10-18T06:37:02.776Z,69.99
2022-10-18T06:39:34.854Z,70.06
2022-10-18T06:42:06.929Z,70.19
2022-10-18T06:44:39.315Z,69.87
2022-10-18T06:47:11.714Z,69.59
2022-10-18T06:49:43.655Z,69.54
2022-10-18T06:52:17.784Z,68.92
2022-10-18T06:54:51.130Z,68.54
2022-10-18T06:57:23.356Z,68.39
2022-10-18T06:59:56.649Z,68.82
2022-10-18T07:02:28.700Z,69.19
2022-10-18T07:05:00.672Z,67.76
2022-10-18T07:07:36.303Z,66.57
2022-10-18T07:10:12.918Z,66.16
2022-10-18T07:12:47.952Z,65.36
2022-10-18T07:15:22.754Z,65.77
2022-10-18T07:17:54.880Z,62.00
2022-10-18T07:20:27.274Z,62.00
2022-10-18T07:23:00.005Z,62.05
2022-10-18T07:25:32.865Z,61.31
2022-10-18T07:28:04.976Z,59.17
2022-10-18T07:30:37.403Z,58.02
2022-10-18T07:33:09.533Z,57.37
2022-10-18T07:35:44.563Z,57.30
2022-10-18T07:38:16.675Z,57.89
2022-10-18T07:40:48.740Z,56.40
2022-10-18T07:43:23.032Z,53.57
2022-10-18T07:45:59.592Z,53.01
2022-10-18T07:48:32.037Z,52.13
2022-10-18T07:51:05.055Z,51.59
2022-10-18T07:53:37.364Z,51.87
2022-10-18T07:56:16.335Z,50.96
2022-10-18T07:58:52.513Z,48.93
2022-10-18T08:01:25.959Z,47.80
2022-10-18T08:04:03.223Z,45.19
2022-10-18T08:06:37.124Z,45.22
2022-10-18T08:09:11.963Z,44.72
2022-10-18T08:11:44.004Z,44.09
2022-10-18T08:14:16.606Z,43.38
2022-10-18T08:16:48.640Z,42.26
2022-10-18T08:19:20.629Z,41.80
2022-10-18T08:21:52.722Z,41.21
2022-10-18T08:24:24.887Z,40.94
2022-10-18T08:26:57.030Z,41.20
2022-10-18T08:29:31.679Z,41.07
2022-10-18T08:32:41.700Z,40.58
2022-10-18T08:35:14.281Z,40.17
2022-10-18T08:37:46.704Z,39.59
2022-10-18T08:40:20.413Z,39.04
2022-10-18T08:43:04.057Z,38.77
2022-10-18T08:45:42.926Z,37.03
2022-10-18T08:48:24.733Z,36.97
2022-10-18T08:50:57.553Z,36.63
2022-10-18T08:53:37.604Z,35.57
2022-10-18T08:56:15.649Z,34.52
2022-10-18T08:58:49.768Z,34.39
2022-10-18T09:01:31.584Z,33.86
2022-10-18T09:04:28.430Z,34.15
2022-10-18T09:07:18.803Z,29.70
2022-10-18T09:14:08.404Z,29.28
2022-10-18T09:21:00.604Z,27.77
2022-10-18T09:23:44.244Z,28.28
2022-10-18T09:30:31.084Z,29.13
2022-10-18T09:33:12.685Z,28.58
2022-10-18T09:35:50.198Z,27.21
2022-10-18T09:38:27.703Z,27.37
2022-10-18T09:41:03.641Z,27.09
2022-10-18T09:51:44.137Z,25.46
2022-10-18T09:58:38.150Z,24.10
2022-10-18T10:01:12.078Z,23.70
2022-10-18T10:03:44.977Z,23.66
2022-10-18T10:06:31.661Z,24.02
2022-10-18T10:09:09.416Z,23.93
2022-10-18T10:15:36.957Z,23.65
2022-10-18T10:18:24.822Z,23.48
2022-10-18T10:21:09.436Z,23.45
2022-10-18T10:23:46.863Z,24.11
2022-10-18T10:26:26.279Z,24.00
2022-10-18T10:28:58.472Z,24.31
2022-10-18T10:31:32.571Z,24.55
2022-10-18T10:34:06.314Z,25.18
2022-10-18T10:36:50.196Z,24.99
2022-10-18T10:39:26.046Z,25.38
2022-10-18T10:42:05.886Z,25.87
2022-10-18T10:44:40.527Z,26.07
2022-10-18T10:47:27.831Z,26.46
2022-10-18T10:50:00.461Z,27.10
2022-10-18T10:52:32.925Z,27.28
2022-10-18T10:55:23.573Z,27.58
2022-10-18T10:57:58.987Z,28.09
2022-10-18T11:00:48.745Z,29.25
2022-10-18T11:03:29.085Z,29.81
2022-10-18T11:06:02.158Z,30.07
2022-10-18T11:08:39.456Z,30.53
2022-10-18T11:11:23.286Z,31.24
2022-10-18T11:14:25.685Z,31.29
2022-10-18T11:17:08.143Z,30.42
2022-10-18T11:19:56.948Z,31.08
2022-10-18T11:22:34.125Z,31.42
2022-10-18T11:25:07.876Z,32.01
2022-10-18T11:27:47.985Z,32.24
2022-10-18T11:30:42.196Z,32.62
2022-10-18T11:33:33.649Z,32.88
2022-10-18T11:39:04.651Z,34.20
2022-10-18T11:41:45.466Z,34.39
2022-10-18T11:44:31.235Z,34.85
2022-10-18T11:47:11.136Z,35.17
2022-10-18T11:50:08.361Z,35.70
2022-10-18T11:52:49.503Z,35.88
2022-10-18T11:55:47.640Z,36.30
2022-10-18T11:58:38.438Z,36.60
2022-10-18T12:01:24.747Z,36.02
2022-10-18T12:04:09.016Z,36.06
2022-10-18T12:06:44.230Z,36.61
2022-10-18T12:09:29.054Z,36.75
2022-10-18T12:12:08.545Z,36.94
2022-10-18T12:14:46.619Z,37.31
2022-10-18T12:17:44.085Z,37.61
2022-10-18T12:20:24.807Z,37.81
2022-10-18T12:26:24.858Z,38.16
2022-10-18T12:29:16.566Z,38.08
2022-10-18T12:31:52.299Z,37.70
2022-10-18T12:43:03.504Z,38.37
2022-10-18T12:45:51.606Z,38.39
2022-10-18T12:48:38.841Z,38.42
2022-10-18T12:51:18.726Z,38.83
2022-10-18T12:53:56.261Z,38.80
2022-10-18T12:56:43.478Z,38.84
2022-10-18T12:59:43.615Z,38.91
2022-10-18T13:02:35.071Z,39.32
2022-10-18T13:06:06.593Z,39.13
2022-10-18T13:08:51.066Z,37.55
2022-10-18T13:11:36.123Z,37.76
2022-10-18T13:14:44.039Z,37.03
2022-10-18T13:17:33.880Z,36.05
2022-10-18T13:20:26.050Z,35.88
2022-10-18T13:23:09.354Z,35.13
2022-10-18T13:25:55.549Z,35.21
2022-10-18T13:28:38.891Z,35.02
2022-10-18T13:31:21.227Z,34.77
2022-10-18T13:33:53.541Z,34.52
2022-10-18T13:36:30.034Z,34.16
2022-10-18T13:39:07.289Z,33.66
2022-10-18T13:42:09.739Z,33.60
2022-10-18T13:44:42.551Z,33.91
2022-10-18T13:47:16.377Z,33.75
2022-10-18T13:50:26.086Z,33.52
2022-10-18T13:53:32.715Z,33.93
2022-10-18T13:56:31.461Z,34.56
2022-10-18T13:59:22.774Z,34.72
2022-10-18T14:02:15.089Z,35.14
2022-10-18T14:05:23.681Z,35.57
2022-10-18T14:08:06.934Z,35.99
2022-10-18T14:11:01.703Z,36.42
2022-10-18T14:13:46.952Z,36.83
2022-10-18T14:16:32.383Z,37.20
2022-10-18T14:19:30.604Z,37.72
2022-10-18T14:22:11.472Z,38.02
2022-10-18T14:24:47.926Z,38.50
2022-10-18T14:27:23.768Z,39.09
2022-10-18T14:30:14.970Z,39.36
2022-10-18T14:32:49.789Z,39.73
2022-10-18T14:36:15.798Z,40.21
2022-10-18T14:38:56.376Z,40.45
2022-10-18T14:41:30.042Z,40.67
2022-10-18T14:44:21.370Z,40.83
2022-10-18T14:46:59.712Z,41.54
2022-10-18T14:49:32.424Z,41.95
2022-10-18T14:52:04.511Z,42.13
2022-10-18T14:54:39.533Z,42.82
2022-10-18T14:57:44.661Z,42.90
2022-10-18T15:00:25.831Z,43.09
2022-10-18T15:02:57.941Z,43.35
2022-10-18T15:05:30.196Z,43.98
2022-10-18T15:08:02.673Z,44.27
2022-10-18T15:10:36.468Z,44.81
2022-10-18T15:13:10.265Z,44.78
2022-10-18T15:15:44.936Z,45.12
2022-10-18T15:18:24.075Z,45.79
2022-10-18T15:21:20.475Z,46.13
2022-10-18T15:23:53.058Z,46.21
2022-10-18T15:26:29.810Z,46.55
2022-10-18T15:29:04.475Z,46.65
2022-10-18T15:31:42.965Z,46.87
2022-10-18T15:34:24.028Z,46.99
2022-10-18T15:36:57.914Z,47.40
2022-10-18T15:39:31.795Z,47.50
2022-10-18T15:42:05.113Z,47.57
2022-10-18T15:44:48.075Z,47.85
2022-10-18T15:47:25.146Z,48.12
2022-10-18T15:49:58.652Z,48.49
2022-10-18T15:52:42.568Z,48.78
2022-10-18T15:55:48.927Z,49.01
2022-10-18T15:58:24.793Z,49.41
2022-10-18T16:01:00.203Z,49.87
2022-10-18T16:03:36.954Z,49.82
2022-10-18T16:06:13.438Z,50.02
2022-10-18T16:08:50.620Z,50.21
2022-10-18T16:11:24.709Z,50.73
2022-10-18T16:13:59.612Z,50.90
2022-10-18T16:16:32.926Z,50.95
2022-10-18T16:19:05.574Z,51.28
2022-10-18T16:21:39.676Z,51.30
2022-10-18T16:24:12.031Z,51.88
2022-10-18T16:26:44.274Z,51.78
2022-10-18T16:29:19.547Z,52.06
2022-10-18T16:31:53.582Z,52.25
2022-10-18T16:34:27.648Z,52.43
2022-10-18T16:36:59.699Z,53.02
2022-10-18T16:39:34.910Z,53.62
2022-10-18T16:42:06.834Z,53.60
2022-10-18T16:44:38.942Z,53.85
2022-10-18T16:47:12.651Z,53.92
2022-10-18T16:49:45.220Z,54.23
2022-10-18T16:55:30.950Z,54.39
2022-10-18T16:58:03.270Z,54.98
2022-10-18T17:00:35.908Z,55.26
2022-10-18T17:03:08.540Z,55.55
2022-10-18T17:05:40.550Z,55.38
2022-10-18T17:08:21.306Z,55.67
2022-10-18T17:10:55.338Z,56.02
2022-10-18T17:13:27.792Z,56.17
2022-10-18T17:16:04.887Z,56.30
2022-10-18T17:18:37.276Z,56.52
2022-10-18T17:21:09.257Z,56.73
2022-10-18T17:23:41.204Z,56.84
2022-10-18T17:26:29.328Z,56.95
2022-10-18T17:29:05.363Z,57.44
2022-10-18T17:31:37.632Z,58.15
2022-10-18T17:34:10.228Z,58.20
2022-10-18T17:36:42.240Z,58.52
2022-10-18T17:39:14.356Z,58.85
2022-10-18T17:41:46.330Z,59.08
2022-10-18T17:44:18.624Z,60.18
2022-10-18T17:46:54.079Z,61.74
2022-10-18T17:49:26.427Z,62.86
2022-10-18T17:52:00.238Z,64.52
2022-10-18T17:54:34.054Z,65.00
2022-10-18T17:57:06.084Z,65.26
2022-10-18T17:59:38.175Z,66.68
2022-10-18T18:02:10.477Z,67.62
2022-10-18T18:04:42.529Z,67.53
2022-10-18T18:07:14.472Z,67.63
2022-10-18T18:09:46.404Z,67.24
2022-10-18T18:12:18.683Z,67.66
2022-10-18T18:14:50.994Z,68.45
2022-10-18T18:21:59.448Z,69.86
2022-10-18T18:29:25.180Z,71.21
2022-10-18T18:31:57.246Z,72.52
2022-10-18T18:35:12.911Z,72.12
2022-10-18T18:37:45.043Z,72.45
2022-10-18T18:40:17.154Z,72.58
2022-10-18T18:46:10.289Z,73.99
2022-10-18T18:49:09.059Z,73.33
2022-10-18T18:51:41.663Z,73.65
2022-10-18T18:54:50.172Z,73.57
2022-10-18T19:01:48.816Z,74.27
2022-10-18T19:04:29.061Z,74.77
2022-10-18T19:07:01.122Z,75.40
2022-10-18T19:09:38.011Z,75.22
2022-10-18T19:12:09.932Z,75.56
2022-10-18T19:14:41.851Z,75.48
2022-10-18T19:17:13.909Z,75.52
2022-10-18T19:19:46.417Z,75.72
2022-10-18T19:22:20.370Z,75.77
2022-10-18T19:24:52.354Z,75.80
2022-10-18T19:27:24.341Z,75.93
2022-10-18T19:29:56.920Z,76.14
2022-10-18T19:38:21.060Z,77.25
2022-10-18T19:40:53.885Z,77.22
2022-10-18T19:43:26.187Z,77.88
2022-10-18T19:46:02.475Z,78.31
2022-10-18T19:48:37.246Z,78.13
2022-10-18T19:51:10.952Z,78.42
2022-10-18T19:53:44.215Z,78.63
2022-10-18T19:56:20.666Z,78.68
2022-10-18T19:58:53.294Z,78.90
2022-10-18T20:01:26.853Z,78.85
2022-10-18T20:03:59.659Z,79.16
2022-10-18T20:06:31.720Z,80.15
2022-10-18T20:09:04.248Z,80.21
2022-10-18T20:11:37.378Z,79.92
2022-10-18T20:14:10.929Z,80.08
2022-10-18T20:16:43.154Z,80.15
2022-10-18T20:19:16.152Z,80.52
2022-10-18T20:21:49.571Z,80.63
2022-10-18T20:24:21.600Z,80.87
2022-10-18T20:29:30.824Z,80.65
2022-10-18T20:32:02.775Z,80.77
2022-10-18T20:34:35.133Z,80.79
2022-10-18T20:37:07.213Z,80.93
2022-10-18T20:39:40.587Z,80.97
2022-10-18T20:42:12.512Z,80.93
2022-10-18T20:44:44.471Z,81.34
2022-10-18T20:47:16.484Z,81.47
2022-10-18T20:49:50.722Z,81.42
2022-10-18T20:52:22.784Z,81.41
2022-10-18T20:54:55.150Z,81.39
2022-10-18T20:57:27.056Z,81.48
2022-10-18T20:59:59.030Z,81.53
2022-10-18T21:02:31.110Z,81.59
2022-10-18T21:05:03.107Z,81.64
2022-10-18T21:07:35.619Z,81.80
2022-10-18T21:10:09.676Z,82.00
2022-10-18T21:12:41.680Z,82.19
2022-10-18T21:15:14.113Z,82.14
2022-10-18T21:17:50.681Z,82.35
2022-10-18T21:20:22.695Z,82.42
2022-10-18T21:22:55.000Z,82.58
2022-10-18T21:25:27.020Z,82.66
2022-10-18T21:27:59.159Z,82.63
2022-10-18T21:30:31.226Z,82.59
2022-10-18T21:33:03.297Z,82.59
2022-10-18T21:35:39.521Z,82.66
2022-10-18T21:38:13.879Z,82.95
2022-10-18T21:40:45.869Z,82.99
2022-10-18T21:43:17.914Z,83.10
2022-10-18T21:45:49.899Z,83.10
2022-10-18T21:51:05.075Z,83.23
2022-10-18T21:53:37.413Z,83.31
2022-10-18T21:56:11.591Z,83.32
2022-10-18T21:58:44.415Z,83.28
2022-10-18T22:01:19.012Z,83.23
2022-10-18T22:03:53.392Z,83.25
2022-10-18T22:06:26.338Z,83.64
2022-10-18T22:09:00.954Z,83.76
2022-10-18T22:11:36.274Z,83.93
2022-10-18T22:14:08.604Z,84.05
2022-10-18T22:16:40.983Z,84.32
2022-10-18T22:19:15.019Z,84.40
2022-10-18T22:21:47.386Z,84.50
2022-10-18T22:24:19.440Z,84.52
2022-10-18T22:26:51.465Z,84.71
2022-10-18T22:29:26.215Z,84.67
2022-10-18T22:31:58.811Z,84.53
2022-10-18T22:34:30.807Z,84.70
2022-10-18T22:37:02.802Z,84.63
2022-10-18T22:39:34.939Z,84.86
2022-10-18T22:42:07.007Z,85.03
2022-10-18T22:44:38.944Z,85.01
2022-10-18T22:47:10.961Z,85.08
2022-10-18T22:49:42.959Z,85.20
2022-10-18T22:52:15.183Z,85.22
2022-10-18T22:54:47.142Z,85.22
2022-10-18T22:57:21.257Z,85.27
2022-10-18T22:59:53.300Z,85.34
2022-10-18T23:02:25.478Z,85.33
2022-10-18T23:04:57.565Z,85.13
2022-10-18T23:07:29.741Z,85.22
2022-10-18T23:10:01.919Z,85.48
2022-10-18T23:12:34.310Z,85.57
2022-10-18T23:15:07.660Z,85.58
2022-10-18T23:17:40.033Z,85.64
2022-10-18T23:20:13.250Z,85.71
2022-10-18T23:22:45.283Z,85.70
2022-10-18T23:25:17.495Z,85.83
2022-10-18T23:27:49.553Z,85.86
2022-10-18T23:30:21.923Z,86.06
2022-10-18T23:32:53.978Z,86.12
2022-10-18T23:35:26.073Z,86.22
2022-10-18T23:37:58.181Z,86.33
2022-10-18T23:40:30.371Z,86.46
2022-10-18T23:43:02.656Z,86.73
2022-10-18T23:45:34.966Z,86.62
2022-10-18T23:48:07.478Z,86.92
2022-10-18T23:50:39.554Z,87.17
2022-10-18T23:53:11.739Z,87.11
2022-10-18T23:55:53.761Z,87.20
2022-10-18T23:58:27.059Z,87.29
